createdAt,value
2022-08-14T00:00:10.669Z,100779.38
2022-08-14T00:01:15.261Z,100774.16
2022-08-14T00:02:27.169Z,100775.44
2022-08-14T00:03:32.923Z,100771.06
2022-08-14T00:04:42.403Z,100766.66
2022-08-14T00:05:47.818Z,100761.47
2022-08-14T00:07:00.039Z,100765.22
2022-08-14T00:08:02.755Z,100755.41
2022-08-14T00:09:16.005Z,100753.97
2022-08-14T00:10:52.148Z,100759.41
2022-08-14T00:11:43.975Z,100755.00
2022-08-14T00:12:56.423Z,100763.41
2022-08-14T00:13:59.615Z,100761.94
2022-08-14T00:15:09.716Z,100746.44
2022-08-14T00:16:40.816Z,100753.97
2022-08-14T00:17:38.104Z,100749.59
2022-08-14T00:19:06.328Z,100750.88
2022-08-14T00:20:12.889Z,100751.91
2022-08-14T00:21:17.050Z,100747.75
2022-08-14T00:22:44.702Z,100755.06
2022-08-14T00:23:43.044Z,100746.31
2022-08-14T00:24:44.868Z,100749.25
2022-08-14T00:25:59.233Z,100741.31
2022-08-14T00:27:09.532Z,100741.53
2022-08-14T00:28:15.471Z,100743.41
2022-08-14T00:29:21.337Z,100742.81
2022-08-14T00:30:28.592Z,100732.97
2022-08-14T00:31:35.274Z,100729.66
2022-08-14T00:32:52.079Z,100732.59
2022-08-14T00:33:58.776Z,100724.69
2022-08-14T00:35:03.314Z,100729.50
2022-08-14T00:36:35.938Z,100725.13
2022-08-14T00:37:28.392Z,100728.88
2022-08-14T00:38:32.004Z,100725.56
2022-08-14T00:39:36.616Z,100726.16
2022-08-14T00:40:39.387Z,100729.31
2022-08-14T00:41:48.189Z,100726.59
2022-08-14T00:42:54.971Z,100722.22
2022-08-14T00:43:58.342Z,100720.56
2022-08-14T00:45:00.901Z,100723.50
2022-08-14T00:46:07.995Z,100715.56
2022-08-14T00:47:11.171Z,100717.66
2022-08-14T00:48:13.355Z,100718.50
2022-08-14T00:49:38.057Z,100711.63
2022-08-14T00:50:44.804Z,100717.06
2022-08-14T00:51:47.678Z,100717.25
2022-08-14T00:52:52.257Z,100717.25
2022-08-14T00:53:54.961Z,100719.16
2022-08-14T00:54:57.968Z,100719.38
2022-08-14T00:56:01.336Z,100715.81
2022-08-14T00:57:08.897Z,100713.09
2022-08-14T00:58:33.052Z,100712.28
2022-08-14T00:59:36.531Z,100716.88
2022-08-14T01:00:47.315Z,100706.25
2022-08-14T01:01:59.984Z,100702.69
2022-08-14T01:03:02.008Z,100701.00
2022-08-14T01:04:05.678Z,100695.81
2022-08-14T01:05:08.000Z,100698.53
2022-08-14T01:06:15.286Z,100698.53
2022-08-14T01:07:21.035Z,100696.00
2022-08-14T01:08:57.733Z,100696.25
2022-08-14T01:09:50.681Z,100692.69
2022-08-14T01:10:54.281Z,100691.03
2022-08-14T01:12:03.563Z,100692.09
2022-08-14T01:13:05.830Z,100692.31
2022-08-14T01:14:25.404Z,100688.75
2022-08-14T01:15:48.405Z,100691.69
2022-08-14T01:16:55.649Z,100690.88
2022-08-14T01:18:17.545Z,100690.22
2022-08-14T01:19:36.776Z,100685.25
2022-08-14T01:20:57.136Z,100689.00
2022-08-14T01:22:01.150Z,100690.03
2022-08-14T01:23:03.744Z,100678.56
2022-08-14T01:24:09.855Z,100683.16
2022-08-14T01:25:12.631Z,100676.91
2022-08-14T01:26:34.433Z,100674.38
2022-08-14T01:27:56.869Z,100680.66
2022-08-14T01:29:00.246Z,100673.56
2022-08-14T01:30:04.692Z,100674.81
2022-08-14T01:31:12.193Z,100664.19
2022-08-14T01:32:15.590Z,100672.34
2022-08-14T01:33:17.513Z,100665.25
2022-08-14T01:35:17.242Z,100664.41
2022-08-14T01:36:03.700Z,100657.31
2022-08-14T01:37:10.860Z,100660.25
2022-08-14T01:38:14.974Z,100659.41
2022-08-14T01:39:20.413Z,100661.28
2022-08-14T01:40:25.357Z,100653.16
2022-08-14T01:41:30.086Z,100647.13
2022-08-14T01:42:36.191Z,100648.16
2022-08-14T01:43:56.233Z,100641.91
2022-08-14T01:44:59.910Z,100645.44
2022-08-14T01:46:06.761Z,100639.41
2022-08-14T01:47:21.427Z,100634.00
2022-08-14T01:48:24.284Z,100632.31
2022-08-14T01:49:35.480Z,100639.63
2022-08-14T01:50:38.300Z,100631.72
2022-08-14T01:51:44.486Z,100633.59
2022-08-14T01:52:59.144Z,100635.47
2022-08-14T01:54:06.378Z,100634.88
2022-08-14T01:55:09.297Z,100635.06
2022-08-14T01:56:18.704Z,100634.22
2022-08-14T01:57:20.472Z,100638.00
2022-08-14T01:58:28.935Z,100622.78
2022-08-14T01:59:38.060Z,100627.34
2022-08-14T02:00:41.146Z,100620.25
2022-08-14T02:01:51.374Z,100624.84
2022-08-14T02:03:01.674Z,100624.84
2022-08-14T02:04:04.792Z,100614.00
2022-08-14T02:05:35.702Z,100614.00
2022-08-14T02:06:40.519Z,100620.69
2022-08-14T02:07:55.658Z,100612.78
2022-08-14T02:09:19.393Z,100617.38
2022-08-14T02:10:26.075Z,100614.28
2022-08-14T02:11:29.786Z,100616.97
2022-08-14T02:12:32.054Z,100618.66
2022-08-14T02:13:35.548Z,100611.56
2022-08-14T02:14:40.243Z,100608.25
2022-08-14T02:16:01.865Z,100612.59
2022-08-14T02:17:24.484Z,100601.97
2022-08-14T02:18:27.803Z,100608.44
2022-08-14T02:19:35.593Z,100611.16
2022-08-14T02:20:37.284Z,100610.31
2022-08-14T02:21:43.764Z,100610.31
2022-08-14T02:22:52.006Z,100608.63
2022-08-14T02:23:57.433Z,100614.91
2022-08-14T02:25:00.511Z,100614.91
2022-08-14T02:26:24.796Z,100612.44
2022-08-14T02:28:25.514Z,100614.31
2022-08-14T02:28:58.028Z,100617.84
2022-08-14T02:30:02.833Z,100607.44
2022-08-14T02:31:08.850Z,100620.16
2022-08-14T02:32:19.999Z,100621.19
2022-08-14T02:33:33.551Z,100617.66
2022-08-14T02:34:38.390Z,100624.16
2022-08-14T02:35:43.344Z,100623.31
2022-08-14T02:37:04.138Z,100624.16
2022-08-14T02:38:11.825Z,100626.22
2022-08-14T02:39:30.424Z,100627.06
2022-08-14T02:40:34.453Z,100628.31
2022-08-14T02:41:44.662Z,100623.09
2022-08-14T02:42:55.243Z,100626.88
2022-08-14T02:44:00.807Z,100626.88
2022-08-14T02:45:03.596Z,100624.38
2022-08-14T02:46:10.256Z,100621.66
2022-08-14T02:47:14.804Z,100620.00
2022-08-14T02:49:03.950Z,100627.09
2022-08-14T02:49:45.507Z,100625.41
2022-08-14T02:50:51.391Z,100628.13
2022-08-14T02:51:57.439Z,100627.50
2022-08-14T02:53:03.249Z,100629.38
2022-08-14T02:54:08.321Z,100630.47
2022-08-14T02:55:10.001Z,100626.91
2022-08-14T02:56:30.224Z,100627.94
2022-08-14T02:57:39.958Z,100625.41
2022-08-14T02:58:46.723Z,100619.19
2022-08-14T02:59:50.636Z,100617.50
2022-08-14T03:00:54.421Z,100622.09
2022-08-14T03:01:59.848Z,100625.84
2022-08-14T03:03:07.942Z,100622.31
2022-08-14T03:04:11.288Z,100626.06
2022-08-14T03:05:15.203Z,100623.34
2022-08-14T03:06:20.650Z,100622.53
2022-08-14T03:07:37.910Z,100621.69
2022-08-14T03:08:45.980Z,100627.09
2022-08-14T03:10:27.887Z,100625.44
2022-08-14T03:11:12.718Z,100620.25
2022-08-14T03:12:26.958Z,100618.56
2022-08-14T03:13:35.651Z,100622.13
2022-08-14T03:14:38.702Z,100617.72
2022-08-14T03:15:43.183Z,100625.84
2022-08-14T03:16:49.259Z,100618.78
2022-08-14T03:17:56.881Z,100617.97
2022-08-14T03:19:01.135Z,100617.13
2022-08-14T03:20:04.582Z,100616.28
2022-08-14T03:21:08.546Z,100617.13
2022-08-14T03:22:17.614Z,100615.44
2022-08-14T03:23:20.839Z,100612.13
2022-08-14T03:24:23.796Z,100615.88
2022-08-14T03:25:26.593Z,100611.28
2022-08-14T03:26:30.803Z,100614.22
2022-08-14T03:27:35.377Z,100613.41
2022-08-14T03:28:52.750Z,100614.22
2022-08-14T03:29:54.972Z,100617.97
2022-08-14T03:30:59.703Z,100610.03
2022-08-14T03:32:01.721Z,100614.63
2022-08-14T03:33:07.980Z,100617.16
2022-08-14T03:34:10.311Z,100613.00
2022-08-14T03:35:30.876Z,100608.59
2022-08-14T03:37:39.445Z,100611.31
2022-08-14T03:39:12.651Z,100613.41
2022-08-14T03:39:35.408Z,100613.41
2022-08-14T03:40:38.306Z,100613.63
2022-08-14T03:41:41.204Z,100615.50
2022-08-14T03:42:45.444Z,100624.69
2022-08-14T03:43:57.441Z,100612.16
2022-08-14T03:45:26.102Z,100616.75
2022-08-14T03:46:39.229Z,100606.16
2022-08-14T03:47:58.387Z,100607.19
2022-08-14T03:49:02.775Z,100614.66
2022-08-14T03:50:05.421Z,100607.59
2022-08-14T03:51:13.101Z,100612.38
2022-08-14T03:52:18.194Z,100609.06
2022-08-14T03:53:43.952Z,100604.91
2022-08-14T03:54:46.610Z,100608.66
2022-08-14T03:55:59.009Z,100607.22
2022-08-14T03:57:03.317Z,100607.22
2022-08-14T03:58:07.925Z,100607.41
2022-08-14T03:59:17.811Z,100611.19
2022-08-14T04:00:43.618Z,100606.81
2022-08-14T04:01:53.933Z,100605.97
2022-08-14T04:03:06.534Z,100599.94
2022-08-14T04:04:09.037Z,100596.41
2022-08-14T04:05:13.113Z,100597.66
2022-08-14T04:06:21.150Z,100612.25
2022-08-14T04:07:25.033Z,100605.13
2022-08-14T04:08:30.678Z,100603.50
2022-08-14T04:09:34.021Z,100608.91
2022-08-14T04:10:36.346Z,100599.13
2022-08-14T04:11:39.284Z,100600.16
2022-08-14T04:12:42.627Z,100595.75
2022-08-14T04:13:55.985Z,100598.47
2022-08-14T04:14:58.332Z,100602.03
2022-08-14T04:16:06.695Z,100602.25
2022-08-14T04:17:11.715Z,100598.69
2022-08-14T04:18:15.452Z,100591.41
2022-08-14T04:19:23.723Z,100595.16
2022-08-14T04:20:25.951Z,100594.53
2022-08-14T04:21:30.746Z,100591.00
2022-08-14T04:22:33.131Z,100594.75
2022-08-14T04:23:35.830Z,100597.25
2022-08-14T04:24:39.340Z,100592.25
2022-08-14T04:25:42.039Z,100593.28
2022-08-14T04:26:44.477Z,100591.63
2022-08-14T04:28:01.764Z,100599.75
2022-08-14T04:29:14.804Z,100604.31
2022-08-14T04:30:32.528Z,100603.50
2022-08-14T04:32:58.863Z,100600.97
2022-08-14T04:33:04.737Z,100595.78
2022-08-14T04:34:20.986Z,100592.25
2022-08-14T04:35:37.446Z,100597.84
2022-08-14T04:37:10.781Z,100598.69
2022-08-14T04:38:39.680Z,100597.84
2022-08-14T04:40:05.345Z,100592.66
2022-08-14T04:41:30.182Z,100593.47
2022-08-14T04:42:51.507Z,100585.56
2022-08-14T04:43:54.619Z,100589.13
2022-08-14T04:45:00.492Z,100595.56
2022-08-14T04:46:03.994Z,100591.00
2022-08-14T04:47:30.762Z,100591.81
2022-08-14T04:48:43.299Z,100593.47
2022-08-14T04:49:57.050Z,100587.03
2022-08-14T04:51:00.818Z,100593.28
2022-08-14T04:52:04.042Z,100589.53
2022-08-14T04:53:23.329Z,100590.56
2022-08-14T04:54:29.369Z,100586.00
2022-08-14T04:55:31.089Z,100593.88
2022-08-14T04:56:34.591Z,100583.06
2022-08-14T04:57:38.514Z,100583.88
2022-08-14T04:58:42.953Z,100580.16
2022-08-14T04:59:46.878Z,100583.88
2022-08-14T05:00:52.352Z,100590.38
2022-08-14T05:01:57.097Z,100584.72
2022-08-14T05:03:03.067Z,100580.16
2022-08-14T05:04:16.100Z,100580.16
2022-08-14T05:05:20.767Z,100578.09
2022-08-14T05:06:37.360Z,100574.53
2022-08-14T05:07:53.851Z,100580.78
2022-08-14T05:09:00.285Z,100578.09
2022-08-14T05:10:12.764Z,100580.78
2022-08-14T05:11:19.158Z,100578.09
2022-08-14T05:13:13.607Z,100579.75
2022-08-14T05:14:16.256Z,100579.75
2022-08-14T05:15:10.281Z,100576.81
2022-08-14T05:16:13.222Z,100577.66
2022-08-14T05:17:17.417Z,100580.38
2022-08-14T05:18:37.140Z,100578.50
2022-08-14T05:21:04.380Z,100575.59
2022-08-14T05:21:57.350Z,100575.34
2022-08-14T05:22:30.339Z,100577.03
2022-08-14T05:23:34.722Z,100575.34
2022-08-14T05:24:40.567Z,100573.28
2022-08-14T05:25:43.131Z,100580.34
2022-08-14T05:26:46.741Z,100574.09
2022-08-14T05:27:49.106Z,100567.66
2022-08-14T05:28:51.685Z,100566.38
2022-08-14T05:29:55.538Z,100565.56
2022-08-14T05:31:02.777Z,100563.47
2022-08-14T05:32:07.401Z,100560.75
2022-08-14T05:33:10.184Z,100558.66
2022-08-14T05:34:11.826Z,100563.03
2022-08-14T05:35:14.415Z,100558.47
2022-08-14T05:36:17.291Z,100560.94
2022-08-14T05:37:18.958Z,100553.44
2022-08-14T05:38:30.708Z,100556.78
2022-08-14T05:39:33.541Z,100554.91
2022-08-14T05:40:36.690Z,100547.59
2022-08-14T05:41:53.035Z,100554.69
2022-08-14T05:42:56.747Z,100544.47
2022-08-14T05:43:59.831Z,100550.50
2022-08-14T05:45:05.525Z,100548.81
2022-08-14T05:46:18.305Z,100548.81
2022-08-14T05:47:21.369Z,100540.41
2022-08-14T05:48:33.506Z,100543.50
2022-08-14T05:49:36.729Z,100539.31
2022-08-14T05:50:40.308Z,100549.69
2022-08-14T05:51:46.730Z,100545.66
2022-08-14T05:52:50.339Z,100553.31
2022-08-14T05:54:01.622Z,100543.25
2022-08-14T05:55:14.979Z,100549.88
2022-08-14T05:56:19.396Z,100541.44
2022-08-14T05:57:21.122Z,100549.31
2022-08-14T05:58:33.821Z,100552.03
2022-08-14T05:59:43.676Z,100544.66
2022-08-14T06:00:46.299Z,100540.81
2022-08-14T06:01:50.573Z,100534.72
2022-08-14T06:02:56.110Z,100531.34
2022-08-14T06:04:00.058Z,100540.69
2022-08-14T06:05:03.049Z,100532.09
2022-08-14T06:06:05.808Z,100536.88
2022-08-14T06:07:07.384Z,100538.53
2022-08-14T06:08:31.186Z,100529.09
2022-08-14T06:09:40.649Z,100532.41
2022-08-14T06:10:46.189Z,100537.19
2022-08-14T06:11:49.784Z,100539.00
2022-08-14T06:12:56.028Z,100539.97
2022-08-14T06:13:59.957Z,100540.97
2022-08-14T06:15:02.159Z,100536.56
2022-08-14T06:16:11.330Z,100545.69
2022-08-14T06:17:25.699Z,100552.13
2022-08-14T06:18:32.197Z,100544.94
2022-08-14T06:19:34.039Z,100552.44
2022-08-14T06:20:36.766Z,100547.13
2022-08-14T06:21:41.688Z,100540.19
2022-08-14T06:22:47.112Z,100546.59
2022-08-14T06:23:51.791Z,100542.56
2022-08-14T06:24:54.366Z,100541.91
2022-08-14T06:25:56.439Z,100535.78
2022-08-14T06:27:04.325Z,100536.97
2022-08-14T06:28:28.157Z,100542.78
2022-08-14T06:29:32.092Z,100537.97
2022-08-14T06:30:46.052Z,100543.75
2022-08-14T06:31:54.826Z,100538.94
2022-08-14T06:33:06.643Z,100540.16
2022-08-14T06:35:09.582Z,100545.97
2022-08-14T06:35:35.621Z,100540.88
2022-08-14T06:36:39.450Z,100539.13
2022-08-14T06:37:43.627Z,100544.94
2022-08-14T06:38:45.851Z,100540.94
2022-08-14T06:39:52.911Z,100537.75
2022-08-14T06:40:55.613Z,100539.78
2022-08-14T06:42:00.030Z,100544.75
2022-08-14T06:43:04.621Z,100538.59
2022-08-14T06:44:09.706Z,100534.59
2022-08-14T06:45:13.133Z,100533.28
2022-08-14T06:46:23.258Z,100533.03
2022-08-14T06:47:36.287Z,100527.38
2022-08-14T06:48:38.978Z,100529.84
2022-08-14T06:49:55.960Z,100524.78
2022-08-14T06:51:00.708Z,100528.13
2022-08-14T06:52:02.478Z,100521.38
2022-08-14T06:53:07.236Z,100519.69
2022-08-14T06:54:09.246Z,100528.69
2022-08-14T06:55:13.864Z,100532.47
2022-08-14T06:56:15.486Z,100526.66
2022-08-14T06:57:18.192Z,100529.38
2022-08-14T06:58:28.323Z,100525.88
2022-08-14T06:59:33.825Z,100531.53
2022-08-14T07:00:35.476Z,100525.50
2022-08-14T07:01:56.570Z,100522.16
2022-08-14T07:03:17.248Z,100523.47
2022-08-14T07:04:37.577Z,100522.50
2022-08-14T07:05:55.936Z,100521.09
2022-08-14T07:07:00.222Z,100523.44
2022-08-14T07:08:03.601Z,100527.22
2022-08-14T07:09:05.544Z,100514.66
2022-08-14T07:10:16.785Z,100518.47
2022-08-14T07:11:20.040Z,100521.63
2022-08-14T07:12:55.175Z,100524.34
2022-08-14T07:13:44.628Z,100521.03
2022-08-14T07:14:50.419Z,100515.59
2022-08-14T07:15:55.173Z,100517.50
2022-08-14T07:16:57.463Z,100508.50
2022-08-14T07:18:00.661Z,100510.16
2022-08-14T07:19:02.258Z,100507.69
2022-08-14T07:20:05.807Z,100515.84
2022-08-14T07:21:11.353Z,100508.75
2022-08-14T07:22:17.390Z,100511.47
2022-08-14T07:23:25.694Z,100495.97
2022-08-14T07:24:31.388Z,100498.44
2022-08-14T07:25:34.971Z,100496.81
2022-08-14T07:26:40.170Z,100502.25
2022-08-14T07:27:44.517Z,100506.84
2022-08-14T07:28:47.411Z,100505.19
2022-08-14T07:29:49.645Z,100502.47
2022-08-14T07:30:57.557Z,100505.19
2022-08-14T07:32:07.203Z,100495.34
2022-08-14T07:33:14.059Z,100506.84
2022-08-14T07:34:36.103Z,100499.75
2022-08-14T07:35:57.910Z,100502.69
2022-08-14T07:37:02.994Z,100494.50
2022-08-14T07:38:05.182Z,100490.75
2022-08-14T07:39:12.198Z,100491.00
2022-08-14T07:40:15.086Z,100486.97
2022-08-14T07:41:33.507Z,100495.72
2022-08-14T07:42:36.048Z,100492.16
2022-08-14T07:43:39.431Z,100490.06
2022-08-14T07:44:46.579Z,100484.63
2022-08-14T07:45:53.889Z,100487.91
2022-08-14T07:46:55.938Z,100485.81
2022-08-14T07:47:58.694Z,100482.63
2022-08-14T07:49:00.850Z,100486.75
2022-08-14T07:50:09.033Z,100485.47
2022-08-14T07:51:11.494Z,100483.78
2022-08-14T07:52:22.196Z,100489.84
2022-08-14T07:53:36.519Z,100484.41
2022-08-14T07:54:41.308Z,100486.03
2022-08-14T07:55:46.398Z,100491.28
2022-08-14T07:57:11.764Z,100488.78
2022-08-14T07:58:34.022Z,100487.72
2022-08-14T07:59:41.958Z,100482.28
2022-08-14T08:00:46.592Z,100480.16
2022-08-14T08:01:53.587Z,100476.34
2022-08-14T08:03:00.676Z,100483.00
2022-08-14T08:04:04.073Z,100474.34
2022-08-14T08:05:21.466Z,100480.38
2022-08-14T08:06:23.483Z,100483.72
2022-08-14T08:07:31.327Z,100483.25
2022-08-14T08:08:33.119Z,100477.81
2022-08-14T08:09:37.991Z,100487.16
2022-08-14T08:11:02.148Z,100482.78
2022-08-14T08:12:14.110Z,100480.63
2022-08-14T08:13:22.333Z,100482.34
2022-08-14T08:14:26.888Z,100481.03
2022-08-14T08:15:33.645Z,100478.09
2022-08-14T08:16:36.569Z,100485.19
2022-08-14T08:17:53.196Z,100485.19
2022-08-14T08:19:01.745Z,100486.84
2022-08-14T08:20:11.657Z,100485.78
2022-08-14T08:21:14.554Z,100490.75
2022-08-14T08:22:21.153Z,100482.94
2022-08-14T08:23:30.994Z,100491.47
2022-08-14T08:24:42.024Z,100482.22
2022-08-14T08:25:46.120Z,100475.47
2022-08-14T08:26:51.307Z,100482.34
2022-08-14T08:28:03.512Z,100477.47
2022-08-14T08:29:10.468Z,100473.69
2022-08-14T08:30:14.698Z,100479.72
2022-08-14T08:31:17.315Z,100478.66
2022-08-14T08:32:20.407Z,100474.88
2022-08-14T08:33:37.211Z,100470.00
2022-08-14T08:34:45.223Z,100476.28
2022-08-14T08:35:50.381Z,100474.63
2022-08-14T08:36:52.735Z,100466.22
2022-08-14T08:38:01.433Z,100468.69
2022-08-14T08:39:15.128Z,100472.03
2022-08-14T08:40:24.869Z,100469.31
2022-08-14T08:41:41.437Z,100471.78
2022-08-14T08:42:45.127Z,100472.38
2022-08-14T08:43:48.126Z,100469.41
2022-08-14T08:44:55.285Z,100470.25
2022-08-14T08:46:00.274Z,100476.03
2022-08-14T08:47:06.133Z,100465.97
2022-08-14T08:48:20.784Z,100468.22
2022-08-14T08:49:43.308Z,100463.84
2022-08-14T08:50:57.258Z,100468.44
2022-08-14T08:52:04.152Z,100462.53
2022-08-14T08:53:09.361Z,100460.41
2022-08-14T08:54:19.907Z,100466.19
2022-08-14T08:55:28.334Z,100463.00
2022-08-14T08:56:39.553Z,100472.84
2022-08-14T08:57:42.956Z,100467.38
2022-08-14T08:58:45.561Z,100464.44
2022-08-14T08:59:49.121Z,100465.28
2022-08-14T09:01:00.021Z,100460.66
2022-08-14T09:02:05.322Z,100461.50
2022-08-14T09:03:10.133Z,100463.13
2022-08-14T09:04:14.931Z,100459.34
2022-08-14T09:05:20.255Z,100457.19
2022-08-14T09:07:00.915Z,100454.22
2022-08-14T09:07:47.347Z,100444.16
2022-08-14T09:08:51.775Z,100458.16
2022-08-14T09:09:59.810Z,100448.66
2022-08-14T09:11:19.035Z,100451.94
2022-08-14T09:12:22.739Z,100448.38
2022-08-14T09:13:26.995Z,100445.22
2022-08-14T09:14:34.952Z,100455.63
2022-08-14T09:15:42.927Z,100452.63
2022-08-14T09:16:48.236Z,100457.59
2022-08-14T09:17:54.626Z,100460.94
2022-08-14T09:18:56.811Z,100455.50
2022-08-14T09:20:01.951Z,100444.09
2022-08-14T09:21:07.059Z,100452.00
2022-08-14T09:22:34.788Z,100451.78
2022-08-14T09:23:35.085Z,100447.38
2022-08-14T09:24:58.289Z,100445.25
2022-08-14T09:26:05.111Z,100444.78
2022-08-14T09:27:23.400Z,100453.53
2022-08-14T09:28:26.135Z,100444.28
2022-08-14T09:29:28.867Z,100439.16
2022-08-14T09:30:37.684Z,100426.94
2022-08-14T09:31:53.472Z,100430.25
2022-08-14T09:33:10.953Z,100432.75
2022-08-14T09:34:28.056Z,100428.09
2022-08-14T09:35:36.329Z,100423.47
2022-08-14T09:36:49.992Z,100425.97
2022-08-14T09:38:00.347Z,100422.75
2022-08-14T09:39:23.249Z,100423.31
2022-08-14T09:40:39.858Z,100420.03
2022-08-14T09:42:20.943Z,100419.75
2022-08-14T09:43:30.515Z,100411.56
2022-08-14T09:44:45.721Z,100422.25
2022-08-14T09:45:52.797Z,100406.25
2022-08-14T09:46:56.116Z,100410.38
2022-08-14T09:48:00.734Z,100407.16
2022-08-14T09:49:05.768Z,100402.03
2022-08-14T09:50:17.154Z,100408.66
2022-08-14T09:51:25.379Z,100400.00
2022-08-14T09:52:34.184Z,100405.22
2022-08-14T09:54:18.850Z,100392.38
2022-08-14T09:55:19.485Z,100393.47
2022-08-14T09:56:30.878Z,100385.00
2022-08-14T09:57:33.423Z,100387.50
2022-08-14T09:58:39.369Z,100389.47
2022-08-14T09:59:46.005Z,100380.78
2022-08-14T10:00:50.814Z,100386.84
2022-08-14T10:01:57.017Z,100381.13
2022-08-14T10:03:05.051Z,100390.16
2022-08-14T10:04:35.055Z,100385.78
2022-08-14T10:05:40.623Z,100391.47
2022-08-14T10:06:45.022Z,100391.25
2022-08-14T10:07:53.869Z,100385.78
2022-08-14T10:09:06.514Z,100389.06
2022-08-14T10:10:28.760Z,100389.06
2022-08-14T10:11:43.289Z,100384.19
2022-08-14T10:12:48.536Z,100385.84
2022-08-14T10:13:58.998Z,100380.72
2022-08-14T10:15:00.794Z,100381.28
2022-08-14T10:16:05.776Z,100381.63
2022-08-14T10:17:33.086Z,100375.09
2022-08-14T10:18:41.829Z,100374.03
2022-08-14T10:19:49.355Z,100376.25
2022-08-14T10:20:57.698Z,100368.63
2022-08-14T10:23:14.317Z,100370.28
2022-08-14T10:23:27.051Z,100371.91
2022-08-14T10:24:36.385Z,100364.31
2022-08-14T10:25:41.076Z,100365.50
2022-08-14T10:26:58.750Z,100366.63
2022-08-14T10:28:03.829Z,100370.81
2022-08-14T10:29:19.954Z,100356.38
2022-08-14T10:30:35.087Z,100364.31
2022-08-14T10:31:43.154Z,100360.50
2022-08-14T10:32:51.657Z,100357.75
2022-08-14T10:34:03.954Z,100359.44
2022-08-14T10:35:17.277Z,100351.22
2022-08-14T10:36:34.509Z,100358.59
2022-08-14T10:37:41.413Z,100356.69
2022-08-14T10:38:58.265Z,100344.94
2022-08-14T10:40:10.447Z,100347.44
2022-08-14T10:41:15.640Z,100349.91
2022-08-14T10:42:21.197Z,100348.31
2022-08-14T10:43:26.527Z,100348.88
2022-08-14T10:44:33.817Z,100353.88
2022-08-14T10:45:42.043Z,100347.91
2022-08-14T10:47:39.553Z,100345.72
2022-08-14T10:48:23.616Z,100352.84
2022-08-14T10:49:28.049Z,100338.09
2022-08-14T10:50:31.501Z,100339.25
2022-08-14T10:51:36.090Z,100339.25
2022-08-14T10:52:42.304Z,100339.84
2022-08-14T10:53:56.787Z,100329.47
2022-08-14T10:55:08.564Z,100334.94
2022-08-14T10:56:21.609Z,100328.94
2022-08-14T10:57:48.797Z,100332.75
2022-08-14T10:59:02.329Z,100333.06
2022-08-14T11:00:13.966Z,100330.94
2022-08-14T11:01:32.552Z,100329.59
2022-08-14T11:02:53.925Z,100330.41
2022-08-14T11:03:57.311Z,100328.25
2022-08-14T11:05:07.468Z,100327.75
2022-08-14T11:06:19.706Z,100316.59
2022-08-14T11:07:22.000Z,100328.06
2022-08-14T11:08:32.637Z,100322.09
2022-08-14T11:09:34.345Z,100325.41
2022-08-14T11:10:44.841Z,100326.22
2022-08-14T11:11:47.622Z,100319.69
2022-08-14T11:12:59.303Z,100320.22
2022-08-14T11:14:01.029Z,100318.91
2022-08-14T11:15:07.518Z,100316.75
2022-08-14T11:16:16.082Z,100312.09
2022-08-14T11:17:18.372Z,100317.28
2022-08-14T11:18:32.144Z,100315.41
2022-08-14T11:19:39.038Z,100318.97
2022-08-14T11:20:54.110Z,100313.25
2022-08-14T11:22:00.892Z,100315.72
2022-08-14T11:23:04.482Z,100316.28
2022-08-14T11:24:50.921Z,100316.84
2022-08-14T11:25:44.340Z,100305.09
2022-08-14T11:26:55.044Z,100304.84
2022-08-14T11:28:00.948Z,100312.53
2022-08-14T11:29:05.702Z,100306.25
2022-08-14T11:30:51.588Z,100309.31
2022-08-14T11:31:38.582Z,100299.19
2022-08-14T11:32:42.661Z,100299.50
2022-08-14T11:33:50.123Z,100294.03
2022-08-14T11:34:53.366Z,100295.69
2022-08-14T11:35:59.595Z,100293.50
2022-08-14T11:37:21.969Z,100295.72
2022-08-14T11:38:37.836Z,100300.13
2022-08-14T11:39:40.682Z,100290.31
2022-08-14T11:40:43.668Z,100287.66
2022-08-14T11:41:55.956Z,100281.66
2022-08-14T11:43:01.214Z,100287.19
2022-08-14T11:44:17.665Z,100291.56
2022-08-14T11:45:23.123Z,100282.81
2022-08-14T11:46:30.217Z,100282.28
2022-08-14T11:47:44.015Z,100280.97
2022-08-14T11:49:05.832Z,100280.66
2022-08-14T11:50:24.926Z,100276.78
2022-08-14T11:51:53.438Z,100281.97
2022-08-14T11:53:02.316Z,100281.66
2022-08-14T11:54:08.195Z,100274.28
2022-08-14T11:55:13.469Z,100280.56
2022-08-14T11:56:15.489Z,100280.28
2022-08-14T11:57:22.739Z,100275.13
2022-08-14T11:58:30.841Z,100266.97
2022-08-14T11:59:33.485Z,100276.81
2022-08-14T12:00:47.286Z,100267.53
2022-08-14T12:01:49.370Z,100265.09
2022-08-14T12:03:03.195Z,100259.94
2022-08-14T12:04:21.817Z,100257.19
2022-08-14T12:05:38.819Z,100261.59
2022-08-14T12:06:49.178Z,100253.16
2022-08-14T12:07:55.136Z,100259.47
2022-08-14T12:08:56.876Z,100246.63
2022-08-14T12:10:25.470Z,100246.41
2022-08-14T12:11:25.382Z,100240.41
2022-08-14T12:12:36.005Z,100241.59
2022-08-14T12:13:44.366Z,100243.81
2022-08-14T12:15:00.088Z,100232.88
2022-08-14T12:16:06.544Z,100241.41
2022-08-14T12:17:14.911Z,100239.50
2022-08-14T12:18:32.317Z,100247.75
2022-08-14T12:19:45.447Z,100243.38
2022-08-14T12:20:52.695Z,100242.56
2022-08-14T12:21:55.544Z,100242.88
2022-08-14T12:22:58.818Z,100248.38
2022-08-14T12:24:05.555Z,100238.81
2022-08-14T12:25:13.755Z,100236.34
2022-08-14T12:26:39.063Z,100222.91
2022-08-14T12:27:51.755Z,100225.38
2022-08-14T12:29:08.569Z,100214.41
2022-08-14T12:30:14.199Z,100228.94
2022-08-14T12:31:23.585Z,100221.25
2022-08-14T12:32:38.826Z,100218.53
2022-08-14T12:33:46.952Z,100220.47
2022-08-14T12:34:55.114Z,100212.50
2022-08-14T12:35:58.680Z,100217.97
2022-08-14T12:37:06.036Z,100211.66
2022-08-14T12:38:10.429Z,100207.56
2022-08-14T12:39:23.879Z,100210.56
2022-08-14T12:40:28.713Z,100207.81
2022-08-14T12:41:37.218Z,100199.59
2022-08-14T12:42:47.527Z,100199.88
2022-08-14T12:43:59.692Z,100193.31
2022-08-14T12:45:04.364Z,100188.66
2022-08-14T12:46:08.086Z,100189.78
2022-08-14T12:47:31.151Z,100185.94
2022-08-14T12:48:34.328Z,100185.97
2022-08-14T12:49:37.728Z,100193.94
2022-08-14T12:50:42.831Z,100182.69
2022-08-14T12:51:57.047Z,100171.72
2022-08-14T12:53:13.919Z,100168.97
2022-08-14T12:54:27.312Z,100170.91
2022-08-14T12:56:17.838Z,100166.53
2022-08-14T12:57:05.409Z,100166.53
2022-08-14T12:58:28.736Z,100165.16
2022-08-14T12:59:37.191Z,100157.50
2022-08-14T13:01:16.275Z,100160.78
2022-08-14T13:02:26.009Z,100165.19
2022-08-14T13:03:30.169Z,100160.22
2022-08-14T13:04:35.443Z,100159.66
2022-08-14T13:05:37.670Z,100163.50
2022-08-14T13:06:44.617Z,100156.94
2022-08-14T13:07:46.255Z,100158.56